東京国際空港の過去48時間の天気

東京国際空港 (Tokyo/Intl)

現在時刻: 9/19 08:32 JST (9/18 23:32 UTC) 以下の時間は現地時間です。

過去48時間のMETAR気象情報
時間 風向 風速(m/s) 視程 気温(℃) 湿度(%) 気圧(hPa) 天気現象
19 08:00 北北東 8 10km以上 24 83 1012
19 07:30 北北東 7 10km以上 24 83 1011
19 07:00 北北東 7 10km以上 23 89 1011
19 06:30 北北東 7 10km以上 23 89 1011
19 06:00 北北東 8 10km以上 23 89 1010
19 05:30 北東 9 10km以上 23 89 1010
19 05:00 北北東 9 10km以上 23 94 1009
19 04:30 北東 10 10km以上 23 94 1009
RJTT 182300Z 03015KT 9999 FEW010 BKN090 24/21 Q1012 NOSIG RMK 1CU010 6AC090 A2989
RJTT 182230Z 02014KT 9999 FEW010 BKN090 24/21 Q1011 NOSIG RMK 1CU010 7AC090 A2988
RJTT 182200Z 02013KT 9999 FEW010 BKN090 23/21 Q1011 NOSIG RMK 1CU010 6AC090 A2987
RJTT 182130Z 03014KT 9999 FEW010 BKN090 23/21 Q1011 NOSIG RMK 1CU010 7AC090 A2986
RJTT 182100Z 03015KT 9999 FEW010 SCT014 BKN100 23/21 Q1010 NOSIG RMK 1CU010 3CU014 6AC100 A2985
RJTT 182030Z 04017KT 9999 FEW008 SCT015 BKN120 23/21 Q1010 NOSIG RMK 1ST008 4CU015 6AC120 A2983
RJTT 182000Z 03017KT 9999 FEW006 BKN012 23/22 Q1009 BECMG FEW015 BKN020 RMK 1ST006 7CU012 A2982
RJTT 181930Z 04019KT 9999 FEW006 BKN011 BKN015 23/22 Q1009 BECMG FEW015 BKN020 RMK 1ST006 5CU011 6CU015 A2980